Artas, South Dakota
Current Conditions -  °F | °C
As of 7:52 AM on Thursday 29 Jan 2015 (Local Time) from KMBG Reporting Station
Scattered Clouds Scattered Clouds  
Wind Chill: 15°   Ceiling: Unl
Heat Index: 29°   Visibility: 10mi
Dew Point: 20°   Wind: 22mph
Humidity: 69%   Direction: 330°NNW
Pressure: 30.38"   Gusts: 30mph
Location:  45.7737°N, 99.5895°W
Report Text: KMBG 291352Z AUTO 33019G26KT 10SM SCT022 M02/M07 A3038 RMK AO2 PK WND 33030/1257 SLP310 T10171067
Loading
Personal Weather Stations






























Interactive Weather Map New forecast layout! Learn more

10-Day Weather Forecast

Advertisements
Track Severe Weather on mobile